CPA525 VHHH-LTFM
Flight info
| Callsign | CPA525 |
|---|---|
| Flight time | N/A |
| Altitude | 36100 |
| Route | BEKOL A461 SHL W22 TEPID W24 OSNOV G586 QP B330 ELKAL W179 IGNAK/K0926S1130 W179 WFX/K0920S1160 W179 OMBON Y1 SADAN L888 XKC/K0896S1220 A460 RULAD/K0896F400 M610 ARBOL Z621 GENDI N147 OTBOR/N0488F400 A480 TIMGA B476 NEBIT B738 KRS B143 TUNEK A909 RODAR N644 ADEKI DCT BADIR DCT LAGAS DCT NOLGA UG261 TBN UM11 CRM UM688 EKSUK UL852 TIVUG UM10 HAKAN UN644 GUMRU UT315 NUGBA |
| Aircraft | A359/H-SDE2E3GHIJ3J4J5LM1ORWXY/LB1D1 |
Departure
| Time | 2026-05-04 09:53 |
|---|---|
| Airport | Hong Kong International Airport (VHHH) |
Arrival
| Time | N/A |
|---|---|
| Airport | İstanbul Airport (LTFM) |
| Time | Latitude | Longitude | Altitude | Speed | Heading |
|---|---|---|---|---|---|
| 2026-05-04 09:29 | 22.31298 | 113.92975 | 38 ft | 0 kts | 341° |
| 2026-05-04 09:34 | 22.31296 | 113.92976 | 38 ft | 0 kts | 341° |
| 2026-05-04 09:34 | 22.31298 | 113.92975 | 38 ft | 0 kts | 341° |
| 2026-05-04 09:44 | 22.31282 | 113.92981 | 38 ft | 4 kts | 341° |
| 2026-05-04 09:46 | 22.31200 | 113.92976 | 38 ft | 0 kts | 71° |
| 2026-05-04 09:51 | 22.31221 | 113.93051 | 38 ft | 6 kts | 89° |
| 2026-05-04 09:51 | 22.31197 | 113.93072 | 38 ft | 8 kts | 149° |
| 2026-05-04 09:51 | 22.31119 | 113.93110 | 38 ft | 16 kts | 164° |
| 2026-05-04 09:51 | 22.30998 | 113.93151 | 38 ft | 18 kts | 160° |
| 2026-05-04 09:52 | 22.30885 | 113.93207 | 38 ft | 18 kts | 152° |
| 2026-05-04 09:52 | 22.30777 | 113.93246 | 40 ft | 15 kts | 182° |
| 2026-05-04 09:52 | 22.30712 | 113.93184 | 40 ft | 9 kts | 249° |
| 2026-05-04 09:52 | 22.30711 | 113.93181 | 40 ft | 0 kts | 249° |
| 2026-05-04 09:53 | 22.30663 | 113.93046 | 39 ft | 55 kts | 249° |
| 2026-05-04 09:53 | 22.30448 | 113.92372 | 38 ft | 133 kts | 251° |
| 2026-05-04 09:53 | 22.30073 | 113.91243 | 401 ft | 165 kts | 249° |
| 2026-05-04 09:53 | 22.29678 | 113.90049 | 1275 ft | 170 kts | 252° |
| 2026-05-04 09:54 | 22.29297 | 113.88844 | 2215 ft | 168 kts | 251° |
| 2026-05-04 09:54 | 22.28908 | 113.87622 | 2917 ft | 180 kts | 255° |
| 2026-05-04 09:54 | 22.28415 | 113.86327 | 3095 ft | 199 kts | 243° |
| 2026-05-04 09:54 | 22.27633 | 113.84982 | 3258 ft | 219 kts | 234° |
| 2026-05-04 09:55 | 22.26742 | 113.83590 | 3455 ft | 238 kts | 234° |
| 2026-05-04 09:55 | 22.25692 | 113.82119 | 3686 ft | 254 kts | 222° |
| 2026-05-04 09:55 | 22.24148 | 113.81276 | 4205 ft | 250 kts | 186° |
| 2026-05-04 09:55 | 22.22420 | 113.81142 | 4832 ft | 250 kts | 180° |
| 2026-05-04 09:56 | 22.20682 | 113.81222 | 5399 ft | 252 kts | 169° |
| 2026-05-04 09:56 | 22.19071 | 113.81949 | 5931 ft | 255 kts | 141° |
| 2026-05-04 09:56 | 22.18181 | 113.82823 | 6295 ft | 257 kts | 132° |
| 2026-05-04 09:56 | 22.16979 | 113.84266 | 6762 ft | 265 kts | 129° |
| 2026-05-04 09:57 | 22.15950 | 113.85936 | 7251 ft | 270 kts | 114° |
| 2026-05-04 09:57 | 22.15202 | 113.87823 | 7797 ft | 276 kts | 111° |
| 2026-05-04 09:57 | 22.14494 | 113.89769 | 8356 ft | 281 kts | 111° |
| 2026-05-04 09:57 | 22.14112 | 113.91834 | 8812 ft | 284 kts | 88° |
| 2026-05-04 09:58 | 22.14625 | 113.93902 | 9043 ft | 293 kts | 62° |
| 2026-05-04 09:58 | 22.15609 | 113.95896 | 9317 ft | 307 kts | 59° |
| 2026-05-04 09:58 | 22.16662 | 113.97929 | 9857 ft | 312 kts | 60° |
| 2026-05-04 10:00 | 22.28218 | 114.11688 | 11681 ft | 402 kts | 37° |
| 2026-05-04 10:00 | 22.30586 | 114.13299 | 12053 ft | 405 kts | 25° |
| 2026-05-04 10:02 | 22.49025 | 114.17848 | 15027 ft | 398 kts | 322° |
| 2026-05-04 10:04 | 22.66139 | 114.07179 | 17759 ft | 419 kts | 331° |
| 2026-05-04 10:04 | 22.68826 | 114.05847 | 18149 ft | 421 kts | 330° |
| 2026-05-04 10:04 | 22.71493 | 114.04506 | 18521 ft | 423 kts | 330° |
| 2026-05-04 10:04 | 22.74131 | 114.03164 | 18876 ft | 424 kts | 330° |
| 2026-05-04 10:05 | 22.76796 | 114.01798 | 19220 ft | 426 kts | 329° |
| 2026-05-04 10:05 | 22.79483 | 114.00414 | 19566 ft | 428 kts | 329° |
| 2026-05-04 10:05 | 22.82173 | 113.99026 | 19914 ft | 430 kts | 329° |
| 2026-05-04 10:05 | 22.84871 | 113.97631 | 20305 ft | 430 kts | 329° |
| 2026-05-04 10:06 | 22.87580 | 113.96232 | 20617 ft | 432 kts | 329° |
| 2026-05-04 10:06 | 22.90296 | 113.94832 | 20972 ft | 433 kts | 329° |
| 2026-05-04 10:06 | 22.93033 | 113.93420 | 21279 ft | 436 kts | 329° |